createdAt,value
2018-03-04T00:00:49.605Z,53.4
2018-03-04T00:01:38.960Z,53.4
2018-03-04T00:02:29.228Z,53.4
2018-03-04T00:03:18.998Z,53.4
2018-03-04T00:04:09.270Z,53.4
2018-03-04T00:04:59.875Z,53.4
2018-03-04T00:05:50.218Z,53.4
2018-03-04T00:06:40.348Z,53.4
2018-03-04T00:07:29.757Z,53.4
2018-03-04T00:08:19.717Z,53.4
2018-03-04T00:09:10.450Z,53.4
2018-03-04T00:09:59.661Z,53.4
2018-03-04T00:10:50.552Z,53.4
2018-03-04T00:11:39.589Z,53.3
2018-03-04T00:12:29.809Z,53.3
2018-03-04T00:13:20.463Z,53.4
2018-03-04T00:14:10.503Z,53.3
2018-03-04T00:14:59.907Z,53.3
2018-03-04T00:15:49.950Z,53.3
2018-03-04T00:16:40.969Z,53.3
2018-03-04T00:17:30.468Z,53.3
2018-03-04T00:18:20.550Z,53.3
2018-03-04T00:19:10.938Z,53.3
2018-03-04T00:20:00.627Z,53.3
2018-03-04T00:20:50.606Z,53.3
2018-03-04T00:21:40.293Z,53.3
2018-03-04T00:22:30.819Z,53.3
2018-03-04T00:23:20.407Z,53.3
2018-03-04T00:24:10.729Z,53.3
2018-03-04T00:25:00.716Z,53.3
2018-03-04T00:25:50.831Z,53.3
2018-03-04T00:26:40.225Z,53.3
2018-03-04T00:27:31.042Z,53.2
2018-03-04T00:28:21.269Z,53.2
2018-03-04T00:29:12.164Z,53.2
2018-03-04T00:30:01.153Z,53.2
2018-03-04T00:30:50.890Z,53.2
2018-03-04T00:31:41.478Z,53.2
2018-03-04T00:32:31.016Z,53.2
2018-03-04T00:33:20.810Z,53.2
2018-03-04T00:34:11.430Z,53.2
2018-03-04T00:35:01.497Z,53.2
2018-03-04T00:35:51.806Z,53.2
2018-03-04T00:36:41.820Z,53.1
2018-03-04T00:37:31.754Z,53.1
2018-03-04T00:38:21.665Z,53.1
2018-03-04T00:39:11.598Z,53.1
2018-03-04T00:40:01.153Z,53.1
2018-03-04T00:40:52.384Z,53.1
2018-03-04T00:41:41.010Z,53.1
2018-03-04T00:42:32.299Z,53.1
2018-03-04T00:43:22.364Z,53.1
2018-03-04T00:44:12.156Z,53.1
2018-03-04T00:45:01.625Z,53.1
2018-03-04T00:45:51.875Z,53.1
2018-03-04T00:46:42.237Z,53.1
2018-03-04T00:47:33.230Z,53.1
2018-03-04T00:48:22.071Z,53.1
2018-03-04T00:49:11.970Z,53.1
2018-03-04T00:50:02.238Z,53.1
2018-03-04T00:50:53.080Z,53.1
2018-03-04T00:51:43.253Z,53
2018-03-04T00:52:33.203Z,53.1
2018-03-04T00:53:23.397Z,53
2018-03-04T00:54:12.576Z,53
2018-03-04T00:55:02.685Z,53
2018-03-04T00:55:53.697Z,53
2018-03-04T00:56:43.785Z,53
2018-03-04T00:57:33.349Z,53
2018-03-04T00:58:23.889Z,52.9
2018-03-04T00:59:13.961Z,52.9
2018-03-04T01:00:03.137Z,52.9
2018-03-04T01:00:52.827Z,52.9
2018-03-04T01:01:43.392Z,52.9
2018-03-04T01:02:33.609Z,52.9
2018-03-04T01:03:23.977Z,52.9
2018-03-04T01:04:13.452Z,52.9
2018-03-04T01:05:04.102Z,52.9
2018-03-04T01:05:53.431Z,52.9
2018-03-04T01:06:43.204Z,52.9
2018-03-04T01:07:33.454Z,52.9
2018-03-04T01:08:23.554Z,52.9
2018-03-04T01:09:13.774Z,52.9
2018-03-04T01:10:03.657Z,52.9
2018-03-04T01:10:53.669Z,52.9
2018-03-04T01:11:44.365Z,52.9
2018-03-04T01:12:34.672Z,52.9
2018-03-04T01:13:23.985Z,52.9
2018-03-04T01:14:14.147Z,52.9
2018-03-04T01:15:04.500Z,52.9
2018-03-04T01:15:54.346Z,52.8
2018-03-04T01:16:44.381Z,52.8
2018-03-04T01:17:34.276Z,52.8
2018-03-04T01:18:24.229Z,52.8
2018-03-04T01:19:14.886Z,52.8
2018-03-04T01:20:04.565Z,52.8
2018-03-04T01:20:54.727Z,52.8
2018-03-04T01:21:44.772Z,52.8
2018-03-04T01:22:35.125Z,52.8
2018-03-04T01:23:24.610Z,52.8
2018-03-04T01:24:14.606Z,52.8
2018-03-04T01:25:04.650Z,52.8
2018-03-04T01:25:55.336Z,52.8
2018-03-04T01:26:45.911Z,52.8
2018-03-04T01:27:34.605Z,52.8
2018-03-04T01:28:25.236Z,52.8
2018-03-04T01:29:14.622Z,52.8
2018-03-04T01:30:06.093Z,52.7
2018-03-04T01:30:55.133Z,52.8
2018-03-04T01:31:45.648Z,52.7
2018-03-04T01:32:35.523Z,52.7
2018-03-04T01:33:25.858Z,52.7
2018-03-04T01:34:16.145Z,52.7
2018-03-04T01:35:05.706Z,52.7
2018-03-04T01:35:55.669Z,52.7
2018-03-04T01:36:45.785Z,52.7
2018-03-04T01:37:36.012Z,52.6
2018-03-04T01:38:25.639Z,52.7
2018-03-04T01:39:15.783Z,52.6
2018-03-04T01:40:06.125Z,52.7
2018-03-04T01:40:56.394Z,52.6
2018-03-04T01:41:46.966Z,52.6
2018-03-04T01:42:35.069Z,52.6
2018-03-04T01:43:26.000Z,52.6
2018-03-04T01:44:16.924Z,52.6
2018-03-04T01:45:05.794Z,52.6
2018-03-04T01:45:56.948Z,52.6
2018-03-04T01:46:46.561Z,52.6
2018-03-04T01:47:37.339Z,52.6
2018-03-04T01:48:27.100Z,52.6
2018-03-04T01:49:16.402Z,52.6
2018-03-04T01:50:06.656Z,52.6
2018-03-04T01:50:56.402Z,52.6
2018-03-04T01:51:46.797Z,52.6
2018-03-04T01:52:36.928Z,52.6
2018-03-04T01:53:27.529Z,52.5
2018-03-04T01:54:16.672Z,52.5
2018-03-04T01:55:07.677Z,52.5
2018-03-04T01:55:56.686Z,52.5
2018-03-04T01:56:47.148Z,52.5
2018-03-04T01:57:37.201Z,52.5
2018-03-04T01:58:27.662Z,52.5
2018-03-04T01:59:17.614Z,52.5
2018-03-04T02:00:06.905Z,52.5
2018-03-04T02:00:57.415Z,52.5
2018-03-04T02:01:47.848Z,52.5
2018-03-04T02:02:38.108Z,52.4
2018-03-04T02:03:27.876Z,52.4
2018-03-04T02:04:18.033Z,52.4
2018-03-04T02:05:07.706Z,52.4
2018-03-04T02:05:58.640Z,52.4
2018-03-04T02:06:47.086Z,52.4
2018-03-04T02:07:38.097Z,52.4
2018-03-04T02:08:28.326Z,52.4
2018-03-04T02:09:17.868Z,52.4
2018-03-04T02:10:08.080Z,-97
2018-03-04T02:10:58.373Z,-97
2018-03-04T02:11:48.281Z,-97
2018-03-04T02:12:37.835Z,-97
2018-03-04T02:13:27.916Z,-97
2018-03-04T02:14:18.431Z,-97
2018-03-04T02:15:08.218Z,-97
2018-03-04T02:15:58.963Z,52.3
2018-03-04T02:16:48.622Z,-97
2018-03-04T02:17:39.181Z,52.3
2018-03-04T02:18:28.668Z,-97
2018-03-04T02:19:18.971Z,52.3
2018-03-04T02:20:08.767Z,52.3
2018-03-04T02:20:58.626Z,52.3
2018-03-04T02:21:49.493Z,52.3
2018-03-04T02:22:39.340Z,52.3
2018-03-04T02:23:28.528Z,52.3
2018-03-04T02:24:19.468Z,52.3
2018-03-04T02:25:09.049Z,52.3
2018-03-04T02:25:59.553Z,52.3
2018-03-04T02:26:49.658Z,52.3
2018-03-04T02:27:38.702Z,52.3
2018-03-04T02:28:29.831Z,52.3
2018-03-04T02:29:18.932Z,52.3
2018-03-04T02:30:10.601Z,52.3
2018-03-04T02:30:59.444Z,52.3
2018-03-04T02:31:50.549Z,52.3
2018-03-04T02:32:39.172Z,52.2
2018-03-04T02:33:29.205Z,52.2
2018-03-04T02:34:20.067Z,52.2
2018-03-04T02:35:10.292Z,52.2
2018-03-04T02:35:59.925Z,52.2
2018-03-04T02:36:50.254Z,52.2
2018-03-04T02:37:40.709Z,52.2
2018-03-04T02:38:29.770Z,52.2
2018-03-04T02:39:19.927Z,52.2
2018-03-04T02:40:10.189Z,52.2
2018-03-04T02:41:00.453Z,52.1
2018-03-04T02:41:50.888Z,52.1
2018-03-04T02:42:40.144Z,52.1
2018-03-04T02:43:30.772Z,52.1
2018-03-04T02:44:21.350Z,52.1
2018-03-04T02:45:09.689Z,52.1
2018-03-04T02:46:00.613Z,52.1
2018-03-04T02:46:51.269Z,52.1
2018-03-04T02:47:41.062Z,52.1
2018-03-04T02:48:31.061Z,52.1
2018-03-04T02:49:21.427Z,52.1
2018-03-04T02:50:10.639Z,52.1
2018-03-04T02:51:01.253Z,52.1
2018-03-04T02:51:51.886Z,52.1
2018-03-04T02:52:40.303Z,52.1
2018-03-04T02:53:31.128Z,52.1
2018-03-04T02:54:21.080Z,52.1
2018-03-04T02:55:10.551Z,52.1
2018-03-04T02:56:01.714Z,52.1
2018-03-04T02:56:51.631Z,52
2018-03-04T02:57:41.295Z,52
2018-03-04T02:58:31.913Z,52
2018-03-04T02:59:22.436Z,52
2018-03-04T03:00:12.243Z,52
2018-03-04T03:01:01.948Z,52
2018-03-04T03:01:51.708Z,52
2018-03-04T03:02:41.663Z,52
2018-03-04T03:03:32.328Z,52
2018-03-04T03:04:22.784Z,-99
2018-03-04T03:05:11.633Z,-99
2018-03-04T03:06:02.277Z,-99
2018-03-04T03:06:51.660Z,-99
2018-03-04T03:07:42.440Z,-99
2018-03-04T03:08:31.869Z,-99
2018-03-04T03:09:22.784Z,-99
2018-03-04T03:10:12.537Z,-99
2018-03-04T03:11:02.670Z,-99
2018-03-04T03:11:52.485Z,-99
2018-03-04T03:12:43.112Z,51.9
2018-03-04T03:13:32.904Z,51.9
2018-03-04T03:14:22.932Z,51.9
2018-03-04T03:15:12.943Z,51.9
2018-03-04T03:16:02.937Z,51.9
2018-03-04T03:16:53.138Z,51.9
2018-03-04T03:17:43.385Z,51.9
2018-03-04T03:18:33.182Z,51.9
2018-03-04T03:19:22.939Z,51.9
2018-03-04T03:20:13.622Z,51.8
2018-03-04T03:21:03.696Z,51.8
2018-03-04T03:21:53.499Z,51.8
2018-03-04T03:22:42.646Z,51.8
2018-03-04T03:23:32.996Z,51.8
2018-03-04T03:24:24.429Z,51.8
2018-03-04T03:25:13.019Z,51.8
2018-03-04T03:26:03.134Z,51.8
2018-03-04T03:26:53.839Z,51.8
2018-03-04T03:27:43.514Z,51.8
2018-03-04T03:28:34.231Z,51.8
2018-03-04T03:29:23.593Z,51.8
2018-03-04T03:30:14.319Z,51.8
2018-03-04T03:31:03.930Z,51.8
2018-03-04T03:31:53.795Z,51.8
2018-03-04T03:32:44.417Z,51.8
2018-03-04T03:33:34.403Z,51.8
2018-03-04T03:34:23.785Z,51.8
2018-03-04T03:35:13.938Z,51.8
2018-03-04T03:36:04.208Z,51.8
2018-03-04T03:36:54.245Z,51.7
2018-03-04T03:37:43.936Z,51.7
2018-03-04T03:38:34.641Z,51.7
2018-03-04T03:39:24.338Z,51.7
2018-03-04T03:40:14.758Z,51.7
2018-03-04T03:41:04.946Z,51.7
2018-03-04T03:41:54.598Z,51.7
2018-03-04T03:42:44.043Z,51.7
2018-03-04T03:43:35.159Z,51.6
2018-03-04T03:44:24.589Z,51.6
2018-03-04T03:45:15.020Z,51.6
2018-03-04T03:46:04.014Z,51.6
2018-03-04T03:46:53.755Z,51.7
2018-03-04T03:47:46.017Z,51.6
2018-03-04T03:48:34.555Z,51.6
2018-03-04T03:49:25.634Z,51.6
2018-03-04T03:50:15.465Z,51.6
2018-03-04T03:51:06.023Z,51.6
2018-03-04T03:51:55.496Z,51.6
2018-03-04T03:52:45.584Z,51.6
2018-03-04T03:53:35.230Z,51.6
2018-03-04T03:54:25.482Z,51.6
2018-03-04T03:55:15.740Z,51.6
2018-03-04T03:56:06.056Z,51.6
2018-03-04T03:56:56.459Z,51.6
2018-03-04T03:57:45.622Z,51.6
2018-03-04T03:58:35.973Z,51.6
2018-03-04T03:59:25.794Z,51.6
2018-03-04T04:00:16.465Z,51.5
2018-03-04T04:01:06.109Z,51.5
2018-03-04T04:01:55.958Z,51.5
2018-03-04T04:02:46.340Z,51.5
2018-03-04T04:03:36.476Z,51.5
2018-03-04T04:04:25.784Z,51.5
2018-03-04T04:05:16.102Z,51.5
2018-03-04T04:06:06.078Z,51.5
2018-03-04T04:06:56.939Z,51.5
2018-03-04T04:07:46.881Z,51.5
2018-03-04T04:08:34.505Z,51.4
2018-03-04T04:09:26.435Z,51.4
2018-03-04T04:10:15.332Z,51.4
2018-03-04T04:11:06.140Z,51.4
2018-03-04T04:11:56.972Z,51.4
2018-03-04T04:12:47.257Z,51.4
2018-03-04T04:13:37.034Z,51.4
2018-03-04T04:14:26.663Z,51.4
2018-03-04T04:15:16.395Z,51.4
2018-03-04T04:16:06.411Z,51.4
2018-03-04T04:16:57.614Z,51.4
2018-03-04T04:17:47.378Z,51.4
2018-03-04T04:18:36.878Z,51.4
2018-03-04T04:19:27.389Z,51.4
2018-03-04T04:20:16.686Z,51.4
2018-03-04T04:21:07.128Z,51.4
2018-03-04T04:21:57.422Z,51.4
2018-03-04T04:22:46.977Z,51.4
2018-03-04T04:23:37.800Z,51.4
2018-03-04T04:24:28.026Z,51.3
2018-03-04T04:25:31.945Z,51.3
2018-03-04T04:26:08.272Z,51.3
2018-03-04T04:26:57.674Z,51.3
2018-03-04T04:27:48.262Z,51.3
2018-03-04T04:28:38.340Z,51.3
2018-03-04T04:29:28.655Z,51.3
2018-03-04T04:30:18.465Z,51.3
2018-03-04T04:31:08.850Z,51.3
2018-03-04T04:31:58.844Z,51.3
2018-03-04T04:32:48.615Z,51.3
2018-03-04T04:33:38.407Z,51.3
2018-03-04T04:34:29.020Z,51.3
2018-03-04T04:35:18.794Z,51.3
2018-03-04T04:36:09.453Z,51.3
2018-03-04T04:36:58.892Z,51.2
2018-03-04T04:37:49.514Z,51.3
2018-03-04T04:38:39.561Z,51.3
2018-03-04T04:39:28.547Z,51.3
2018-03-04T04:40:18.199Z,51.2
2018-03-04T04:41:09.195Z,51.2
2018-03-04T04:41:59.891Z,51.2
2018-03-04T04:42:49.372Z,51.2
2018-03-04T04:43:38.227Z,51.2
2018-03-04T04:44:29.240Z,51.2
2018-03-04T04:45:18.973Z,51.2
2018-03-04T04:46:09.099Z,51.2
2018-03-04T04:46:58.081Z,51.2
2018-03-04T04:47:49.969Z,51.1
2018-03-04T04:48:38.983Z,51.1
2018-03-04T04:49:28.944Z,51.1
2018-03-04T04:50:18.791Z,51.1
2018-03-04T04:51:09.417Z,51.1
2018-03-04T04:51:59.414Z,51.1
2018-03-04T04:52:49.494Z,51.1
2018-03-04T04:53:39.035Z,51.1
2018-03-04T04:54:29.371Z,51.1
2018-03-04T04:55:19.343Z,51.1
2018-03-04T04:56:09.717Z,51.1
2018-03-04T04:56:59.749Z,51.1
2018-03-04T04:57:49.859Z,51.1
2018-03-04T04:58:39.789Z,51.1
2018-03-04T04:59:30.305Z,51.1
2018-03-04T05:00:19.806Z,51.1
2018-03-04T05:01:10.483Z,51.1
2018-03-04T05:01:59.642Z,51.1
2018-03-04T05:02:50.072Z,51.1
2018-03-04T05:03:37.984Z,51.1
2018-03-04T05:04:30.558Z,51.1
2018-03-04T05:05:20.369Z,51
2018-03-04T05:06:10.138Z,51
2018-03-04T05:07:00.583Z,51
2018-03-04T05:07:50.996Z,51
2018-03-04T05:08:41.517Z,51
2018-03-04T05:09:31.228Z,51
2018-03-04T05:10:21.270Z,51
2018-03-04T05:11:11.327Z,51
2018-03-04T05:12:01.412Z,50.9
2018-03-04T05:12:51.452Z,50.9
2018-03-04T05:13:41.113Z,50.9
2018-03-04T05:14:31.075Z,50.9
2018-03-04T05:15:21.075Z,50.9
2018-03-04T05:16:11.013Z,50.9
2018-03-04T05:17:01.168Z,50.9
2018-03-04T05:17:51.485Z,50.9
2018-03-04T05:18:41.016Z,50.9
2018-03-04T05:19:31.982Z,50.9
2018-03-04T05:20:22.235Z,50.9
2018-03-04T05:21:11.752Z,50.9
2018-03-04T05:22:02.088Z,50.9
2018-03-04T05:22:50.818Z,50.9
2018-03-04T05:23:40.945Z,50.9
2018-03-04T05:24:31.097Z,50.9
2018-03-04T05:25:21.831Z,50.9
2018-03-04T05:26:12.119Z,50.9
2018-03-04T05:27:01.877Z,50.9
2018-03-04T05:27:51.325Z,50.9
2018-03-04T05:28:42.157Z,50.9
2018-03-04T05:29:32.126Z,50.9
2018-03-04T05:30:22.106Z,50.8
2018-03-04T05:31:12.581Z,50.8
2018-03-04T05:32:02.239Z,50.8
2018-03-04T05:32:53.024Z,50.8
2018-03-04T05:33:42.397Z,50.8
2018-03-04T05:34:32.887Z,50.8
2018-03-04T05:35:22.742Z,50.8
2018-03-04T05:36:12.592Z,50.8
2018-03-04T05:37:02.612Z,50.8
2018-03-04T05:37:52.140Z,50.8
2018-03-04T05:38:43.313Z,50.8
2018-03-04T05:39:32.331Z,50.8
2018-03-04T05:40:23.384Z,50.8
2018-03-04T05:41:12.656Z,50.8
2018-03-04T05:42:03.276Z,50.8
2018-03-04T05:42:53.028Z,50.8
2018-03-04T05:43:43.902Z,50.7
2018-03-04T05:44:33.200Z,50.7
2018-03-04T05:45:23.526Z,50.7
2018-03-04T05:46:13.109Z,50.7
2018-03-04T05:47:03.420Z,50.7
2018-03-04T05:47:53.976Z,50.7
2018-03-04T05:48:43.951Z,50.7
2018-03-04T05:49:33.789Z,50.7
2018-03-04T05:50:22.593Z,50.7
2018-03-04T05:51:13.855Z,50.7
2018-03-04T05:52:03.523Z,50.7
2018-03-04T05:52:53.434Z,50.6
2018-03-04T05:53:43.453Z,50.6
2018-03-04T05:54:33.874Z,50.6
2018-03-04T05:55:23.924Z,50.6
2018-03-04T05:56:13.615Z,50.6
2018-03-04T05:57:03.662Z,50.6
2018-03-04T05:57:53.431Z,50.6
2018-03-04T05:58:43.859Z,50.6
2018-03-04T05:59:34.817Z,50.6
2018-03-04T06:00:24.215Z,50.6
2018-03-04T06:01:14.858Z,50.6
2018-03-04T06:02:04.697Z,50.6
2018-03-04T06:02:53.775Z,50.6
2018-03-04T06:03:43.850Z,50.6
2018-03-04T06:04:34.600Z,50.6
2018-03-04T06:05:24.810Z,50.6
2018-03-04T06:06:14.125Z,50.6
2018-03-04T06:07:04.459Z,50.5
2018-03-04T06:07:54.919Z,50.5
2018-03-04T06:08:45.058Z,50.5
2018-03-04T06:09:34.730Z,50.5
2018-03-04T06:10:24.435Z,50.5
2018-03-04T06:11:14.767Z,50.5
2018-03-04T06:12:05.586Z,50.5
2018-03-04T06:12:55.680Z,50.5
2018-03-04T06:13:45.987Z,50.5
2018-03-04T06:14:36.357Z,50.5
2018-03-04T06:15:25.794Z,50.4
2018-03-04T06:16:15.891Z,50.4
2018-03-04T06:17:06.022Z,50.4
2018-03-04T06:17:55.997Z,50.4
2018-03-04T06:18:46.332Z,50.4
2018-03-04T06:19:36.089Z,50.4
2018-03-04T06:20:26.760Z,50.4
2018-03-04T06:21:16.781Z,50.4
2018-03-04T06:22:06.039Z,50.4
2018-03-04T06:22:56.611Z,50.4
2018-03-04T06:23:45.812Z,50.4
2018-03-04T06:24:36.776Z,50.4
2018-03-04T06:25:26.817Z,50.4
2018-03-04T06:26:17.176Z,50.4
2018-03-04T06:27:07.212Z,50.4
2018-03-04T06:27:56.710Z,50.4
2018-03-04T06:28:46.747Z,50.4
2018-03-04T06:29:36.478Z,50.3
2018-03-04T06:30:26.571Z,50.4
2018-03-04T06:31:17.182Z,50.3
2018-03-04T06:32:06.549Z,50.3
2018-03-04T06:32:56.583Z,50.3
2018-03-04T06:33:46.738Z,50.3
2018-03-04T06:34:35.810Z,50.3
2018-03-04T06:35:26.232Z,50.3
2018-03-04T06:36:16.995Z,50.3
2018-03-04T06:37:07.328Z,50.3
2018-03-04T06:37:56.543Z,50.3
2018-03-04T06:38:46.901Z,50.3
2018-03-04T06:39:37.891Z,50.3
2018-03-04T06:40:27.113Z,50.3
2018-03-04T06:41:16.779Z,50.3
2018-03-04T06:42:07.580Z,50.3
2018-03-04T06:42:57.364Z,50.3
2018-03-04T06:43:46.732Z,50.3
2018-03-04T06:44:37.635Z,50.3
2018-03-04T06:45:27.243Z,50.3
2018-03-04T06:46:18.000Z,50.3
2018-03-04T06:47:08.032Z,50.2
2018-03-04T06:47:57.131Z,50.2
2018-03-04T06:48:47.561Z,50.2
2018-03-04T06:49:37.440Z,50.2
2018-03-04T06:50:28.343Z,50.2
2018-03-04T06:51:17.378Z,50.2
2018-03-04T06:52:07.806Z,50.2
2018-03-04T06:52:57.668Z,50.2
2018-03-04T06:53:47.822Z,50.1
2018-03-04T06:54:38.274Z,50.1
2018-03-04T06:55:28.148Z,50.1
2018-03-04T06:56:17.706Z,50.1
2018-03-04T06:57:08.189Z,50.1
2018-03-04T06:57:58.085Z,50.1
2018-03-04T06:58:48.027Z,50.1
2018-03-04T06:59:38.544Z,50.1
2018-03-04T07:00:29.116Z,50.1
2018-03-04T07:01:18.776Z,50.1
2018-03-04T07:02:08.316Z,50.1
2018-03-04T07:02:58.561Z,50.1
2018-03-04T07:03:49.008Z,50.1
2018-03-04T07:04:38.466Z,50.1
2018-03-04T07:05:29.093Z,50.1
2018-03-04T07:06:19.205Z,50.1
2018-03-04T07:07:08.770Z,50.1
2018-03-04T07:07:58.635Z,50.1
2018-03-04T07:08:49.251Z,50.1
2018-03-04T07:09:39.447Z,50
2018-03-04T07:10:29.279Z,50
2018-03-04T07:11:19.050Z,50
2018-03-04T07:12:09.011Z,50
2018-03-04T07:12:59.491Z,50
2018-03-04T07:13:49.115Z,50
2018-03-04T07:14:38.976Z,50
2018-03-04T07:15:30.031Z,50
2018-03-04T07:16:20.186Z,50
2018-03-04T07:17:09.531Z,50
2018-03-04T07:18:00.119Z,49.9
2018-03-04T07:18:49.051Z,49.9
2018-03-04T07:19:40.300Z,49.9
2018-03-04T07:20:29.300Z,49.9
2018-03-04T07:21:19.451Z,49.9
2018-03-04T07:22:10.383Z,49.9
2018-03-04T07:23:00.253Z,49.9
2018-03-04T07:23:50.323Z,49.9
2018-03-04T07:24:40.177Z,49.9
2018-03-04T07:25:30.340Z,49.9
2018-03-04T07:26:20.715Z,49.9
2018-03-04T07:27:10.172Z,49.9
2018-03-04T07:28:01.052Z,49.9
2018-03-04T07:28:50.188Z,49.9
2018-03-04T07:29:40.695Z,49.9
2018-03-04T07:30:31.189Z,49.9
2018-03-04T07:31:20.483Z,49.9
2018-03-04T07:32:11.057Z,49.9
2018-03-04T07:33:00.852Z,49.9
2018-03-04T07:33:50.312Z,49.8
2018-03-04T07:34:40.360Z,49.8
2018-03-04T07:35:31.445Z,49.8
2018-03-04T07:36:20.894Z,49.8
2018-03-04T07:37:10.959Z,49.8
2018-03-04T07:38:00.683Z,49.8
2018-03-04T07:38:51.339Z,49.8
2018-03-04T07:39:41.712Z,49.8
2018-03-04T07:40:31.087Z,49.8
2018-03-04T07:41:20.849Z,49.8
2018-03-04T07:42:11.124Z,49.8
2018-03-04T07:43:01.228Z,49.8
2018-03-04T07:43:51.331Z,49.8
2018-03-04T07:44:41.577Z,49.8
2018-03-04T07:45:30.752Z,49.8
2018-03-04T07:46:22.224Z,49.8
2018-03-04T07:47:11.647Z,49.8
2018-03-04T07:48:01.454Z,49.7
2018-03-04T07:48:52.449Z,49.7
2018-03-04T07:49:41.939Z,49.7
2018-03-04T07:50:32.187Z,49.7
2018-03-04T07:51:21.806Z,49.7
2018-03-04T07:52:12.000Z,49.7
2018-03-04T07:53:01.483Z,49.6
2018-03-04T07:53:52.780Z,49.7
2018-03-04T07:54:42.549Z,49.7
2018-03-04T07:55:32.535Z,49.6
2018-03-04T07:56:22.871Z,49.6
2018-03-04T07:57:12.185Z,49.6
2018-03-04T07:58:02.813Z,49.6
2018-03-04T07:58:52.575Z,49.6
2018-03-04T07:59:42.716Z,49.6
2018-03-04T08:00:33.001Z,49.6
2018-03-04T08:01:22.021Z,49.6
2018-03-04T08:02:12.806Z,49.6
2018-03-04T08:03:02.022Z,49.6
2018-03-04T08:03:53.011Z,49.6
2018-03-04T08:04:43.180Z,49.6
2018-03-04T08:05:32.966Z,49.6
2018-03-04T08:06:22.982Z,49.6
2018-03-04T08:07:12.940Z,49.6
2018-03-04T08:08:02.531Z,49.6
2018-03-04T08:08:53.459Z,49.6
2018-03-04T08:09:42.550Z,49.5
2018-03-04T08:10:33.396Z,49.5
2018-03-04T08:11:23.503Z,49.5
2018-03-04T08:12:13.605Z,49.5
2018-03-04T08:13:03.841Z,49.5
2018-03-04T08:13:53.822Z,49.5
2018-03-04T08:14:43.993Z,49.4
2018-03-04T08:15:33.748Z,49.5
2018-03-04T08:16:23.599Z,49.5
2018-03-04T08:17:14.158Z,49.4
2018-03-04T08:18:03.442Z,49.4
2018-03-04T08:18:54.279Z,49.4
2018-03-04T08:19:43.965Z,49.4
2018-03-04T08:20:33.397Z,49.4
2018-03-04T08:21:24.527Z,49.4
2018-03-04T08:22:13.627Z,49.4
2018-03-04T08:23:04.256Z,49.4
2018-03-04T08:23:54.456Z,49.4
2018-03-04T08:24:45.167Z,49.4
2018-03-04T08:25:34.339Z,49.4
2018-03-04T08:26:24.970Z,49.4
2018-03-04T08:27:15.662Z,49.4
2018-03-04T08:28:04.619Z,49.4
2018-03-04T08:28:54.845Z,49.4
2018-03-04T08:29:44.019Z,49.4
2018-03-04T08:30:35.092Z,49.4
2018-03-04T08:31:25.071Z,49.4
2018-03-04T08:32:14.998Z,49.3
2018-03-04T08:33:04.179Z,49.3
2018-03-04T08:33:55.209Z,49.3
2018-03-04T08:34:45.417Z,49.3
2018-03-04T08:35:35.219Z,49.3
2018-03-04T08:36:24.921Z,49.3
2018-03-04T08:37:15.608Z,49.3
2018-03-04T08:38:05.856Z,49.3
2018-03-04T08:38:55.897Z,49.3
2018-03-04T08:39:45.544Z,49.3
2018-03-04T08:40:35.676Z,49.3
2018-03-04T08:41:25.448Z,49.3
2018-03-04T08:42:15.956Z,49.3
2018-03-04T08:43:04.865Z,49.3
2018-03-04T08:43:55.286Z,49.3
2018-03-04T08:44:45.682Z,49.3
2018-03-04T08:45:36.760Z,49.3
2018-03-04T08:46:25.803Z,49.2
2018-03-04T08:47:15.576Z,49.3
2018-03-04T08:48:05.963Z,49.2
2018-03-04T08:48:55.690Z,49.2
2018-03-04T08:49:46.050Z,49.2
2018-03-04T08:50:36.083Z,49.2
2018-03-04T08:51:25.963Z,49.2
2018-03-04T08:52:15.031Z,49.2
2018-03-04T08:53:05.648Z,49.2
2018-03-04T08:53:56.707Z,49.2
2018-03-04T08:54:46.573Z,49.1
2018-03-04T08:55:36.440Z,49.1
2018-03-04T08:56:27.078Z,49.1
2018-03-04T08:57:17.428Z,49.1
2018-03-04T08:58:06.513Z,49.1
2018-03-04T08:58:57.057Z,49.1
2018-03-04T08:59:46.152Z,49.1
2018-03-04T09:00:36.309Z,49.1
2018-03-04T09:01:26.545Z,49.1
2018-03-04T09:02:17.108Z,49.1
2018-03-04T09:03:07.372Z,49.1
2018-03-04T09:03:57.737Z,49.1
2018-03-04T09:04:48.005Z,49.1
2018-03-04T09:05:37.614Z,49.1
2018-03-04T09:06:26.793Z,49.1
2018-03-04T09:07:16.937Z,49.1
2018-03-04T09:08:07.317Z,49
2018-03-04T09:08:57.964Z,49.1
2018-03-04T09:09:47.619Z,49
2018-03-04T09:10:37.502Z,49
2018-03-04T09:11:27.827Z,49
2018-03-04T09:12:17.768Z,49
2018-03-04T09:13:08.085Z,49
2018-03-04T09:13:58.117Z,49
2018-03-04T09:14:48.834Z,48.9
2018-03-04T09:15:38.266Z,49
2018-03-04T09:16:28.294Z,48.9
2018-03-04T09:17:17.986Z,48.9
2018-03-04T09:18:08.381Z,48.9
2018-03-04T09:18:58.277Z,48.9
2018-03-04T09:19:48.497Z,48.9
2018-03-04T09:20:37.918Z,48.9
2018-03-04T09:21:29.205Z,48.9
2018-03-04T09:22:18.599Z,48.9
2018-03-04T09:23:08.397Z,48.9
2018-03-04T09:23:57.940Z,48.9
2018-03-04T09:24:48.603Z,48.9
2018-03-04T09:25:38.447Z,48.9
2018-03-04T09:26:29.134Z,48.9
2018-03-04T09:27:18.649Z,48.9
2018-03-04T09:28:08.635Z,48.9
2018-03-04T09:28:58.834Z,48.9
2018-03-04T09:29:48.885Z,48.8
2018-03-04T09:30:39.600Z,48.9
2018-03-04T09:31:29.274Z,48.9
2018-03-04T09:32:19.288Z,48.8
2018-03-04T09:33:08.841Z,48.8
2018-03-04T09:33:59.151Z,48.8
2018-03-04T09:34:49.076Z,48.8
2018-03-04T09:35:39.572Z,48.8
2018-03-04T09:36:29.964Z,48.8
2018-03-04T09:37:20.006Z,48.8
2018-03-04T09:38:10.328Z,48.8
2018-03-04T09:38:59.286Z,48.8
2018-03-04T09:39:49.558Z,48.8
2018-03-04T09:40:39.635Z,48.8
2018-03-04T09:41:29.781Z,48.8
2018-03-04T09:42:19.718Z,48.8
2018-03-04T09:43:09.481Z,48.8
2018-03-04T09:43:59.737Z,48.8
2018-03-04T09:44:50.005Z,48.8
2018-03-04T09:45:41.093Z,48.8
2018-03-04T09:46:30.134Z,48.7
2018-03-04T09:47:19.793Z,48.7
2018-03-04T09:48:09.887Z,48.7
2018-03-04T09:49:00.041Z,48.7
2018-03-04T09:49:50.622Z,48.7
2018-03-04T09:50:40.981Z,48.7
2018-03-04T09:51:30.736Z,48.6
2018-03-04T09:52:20.516Z,48.7
2018-03-04T09:53:10.491Z,48.7
2018-03-04T09:54:00.446Z,48.6
2018-03-04T09:54:50.491Z,48.6
2018-03-04T09:55:40.448Z,48.6
2018-03-04T09:56:31.005Z,48.6
2018-03-04T09:57:21.159Z,48.6
2018-03-04T09:58:10.826Z,48.6
2018-03-04T09:59:00.478Z,48.6
2018-03-04T09:59:51.250Z,48.6
2018-03-04T10:00:40.321Z,48.6
2018-03-04T10:01:31.386Z,48.6
2018-03-04T10:02:21.316Z,48.6
2018-03-04T10:03:10.477Z,48.6
2018-03-04T10:04:01.652Z,48.6
2018-03-04T10:04:51.944Z,48.6
2018-03-04T10:05:41.687Z,48.6
2018-03-04T10:06:31.504Z,48.6
2018-03-04T10:07:22.134Z,48.6
2018-03-04T10:08:11.839Z,48.6
2018-03-04T10:09:00.909Z,48.6
2018-03-04T10:09:51.174Z,48.5
2018-03-04T10:10:42.571Z,48.5
2018-03-04T10:11:32.080Z,48.5
2018-03-04T10:12:21.964Z,48.5
2018-03-04T10:13:11.295Z,48.5
2018-03-04T10:14:01.627Z,48.5
2018-03-04T10:14:52.260Z,48.5
2018-03-04T10:15:41.520Z,48.5
2018-03-04T10:16:32.420Z,48.5
2018-03-04T10:17:21.903Z,48.4
2018-03-04T10:18:12.131Z,48.5
2018-03-04T10:19:03.006Z,48.4
2018-03-04T10:19:52.064Z,48.4
2018-03-04T10:20:42.251Z,48.4
2018-03-04T10:21:32.479Z,48.4
2018-03-04T10:22:22.078Z,48.4
2018-03-04T10:23:12.417Z,48.4
2018-03-04T10:24:02.145Z,48.4
2018-03-04T10:24:52.587Z,48.4
2018-03-04T10:25:42.195Z,48.4
2018-03-04T10:26:33.713Z,48.4
2018-03-04T10:27:23.269Z,48.4
2018-03-04T10:28:13.218Z,48.4
2018-03-04T10:29:03.135Z,48.4
2018-03-04T10:29:52.275Z,48.4
2018-03-04T10:30:43.695Z,48.4
2018-03-04T10:31:33.232Z,48.4
2018-03-04T10:32:22.877Z,48.3
2018-03-04T10:33:13.392Z,48.3
2018-03-04T10:34:04.244Z,48.3
2018-03-04T10:34:54.001Z,48.3
2018-03-04T10:35:44.595Z,48.3
2018-03-04T10:36:34.073Z,48.3
2018-03-04T10:37:24.738Z,48.3
2018-03-04T10:38:14.489Z,48.3
2018-03-04T10:39:04.005Z,48.3
2018-03-04T10:39:54.881Z,48.3
2018-03-04T10:40:44.342Z,48.3
2018-03-04T10:41:35.001Z,48.3
2018-03-04T10:42:24.752Z,48.3
2018-03-04T10:43:15.119Z,48.3
2018-03-04T10:44:05.222Z,48.3
2018-03-04T10:44:54.695Z,48.3
2018-03-04T10:45:45.010Z,48.3
2018-03-04T10:46:35.354Z,48.3
2018-03-04T10:47:25.435Z,48.3
2018-03-04T10:48:15.511Z,48.3
2018-03-04T10:49:04.229Z,48.2
2018-03-04T10:49:54.500Z,48.3
2018-03-04T10:50:44.894Z,48.2
2018-03-04T10:51:34.852Z,48.2
2018-03-04T10:52:25.290Z,48.2
2018-03-04T10:53:14.816Z,48.2
2018-03-04T10:54:04.544Z,48.2
2018-03-04T10:54:55.230Z,48.2
2018-03-04T10:55:45.194Z,48.2
2018-03-04T10:56:33.853Z,48.2
2018-03-04T10:57:24.430Z,48.2
2018-03-04T10:58:15.626Z,48.2
2018-03-04T10:59:05.753Z,48.2
2018-03-04T10:59:55.533Z,48.1
2018-03-04T11:00:45.915Z,48.1
2018-03-04T11:01:35.873Z,48.1
2018-03-04T11:02:25.337Z,48.1
2018-03-04T11:03:15.142Z,48.1
2018-03-04T11:04:05.364Z,48.1
2018-03-04T11:04:54.961Z,48.1
2018-03-04T11:05:45.510Z,48.1
2018-03-04T11:06:36.318Z,48.2
2018-03-04T11:07:25.326Z,48.2
2018-03-04T11:08:15.857Z,48.3
2018-03-04T11:09:05.232Z,48.3